sensor_id;sensor_type;location;lat;lon;timestamp;P1;durP1;ratioP1;P2;durP2;ratioP2
62554;SDS011;48610;52.144;8.624;2023-07-20T00:02:12;3.75;;;2.00;;
62554;SDS011;48610;52.144;8.624;2023-07-20T00:05:12;3.65;;;2.38;;
62554;SDS011;48610;52.144;8.624;2023-07-20T00:08:13;4.22;;;2.00;;
62554;SDS011;48610;52.144;8.624;2023-07-20T00:11:14;4.28;;;2.25;;
62554;SDS011;48610;52.144;8.624;2023-07-20T00:14:14;3.70;;;2.10;;
62554;SDS011;48610;52.144;8.624;2023-07-20T00:17:15;7.13;;;2.17;;
62554;SDS011;48610;52.144;8.624;2023-07-20T00:20:16;2.33;;;2.00;;
62554;SDS011;48610;52.144;8.624;2023-07-20T00:23:16;2.33;;;2.10;;
62554;SDS011;48610;52.144;8.624;2023-07-20T00:26:17;7.78;;;2.75;;
62554;SDS011;48610;52.144;8.624;2023-07-20T00:29:17;6.28;;;2.28;;
62554;SDS011;48610;52.144;8.624;2023-07-20T00:32:18;3.42;;;2.13;;
62554;SDS011;48610;52.144;8.624;2023-07-20T00:35:19;2.83;;;2.22;;
62554;SDS011;48610;52.144;8.624;2023-07-20T00:38:19;2.50;;;2.30;;
62554;SDS011;48610;52.144;8.624;2023-07-20T00:41:20;2.03;;;1.88;;
62554;SDS011;48610;52.144;8.624;2023-07-20T00:44:21;6.55;;;2.33;;
62554;SDS011;48610;52.144;8.624;2023-07-20T00:47:22;5.00;;;2.22;;
62554;SDS011;48610;52.144;8.624;2023-07-20T00:50:23;2.50;;;2.30;;
62554;SDS011;48610;52.144;8.624;2023-07-20T00:53:26;2.05;;;1.95;;
62554;SDS011;48610;52.144;8.624;2023-07-20T00:56:26;2.78;;;2.10;;
62554;SDS011;48610;52.144;8.624;2023-07-20T00:59:27;5.40;;;2.33;;
62554;SDS011;48610;52.144;8.624;2023-07-20T01:02:28;4.78;;;2.47;;
62554;SDS011;48610;52.144;8.624;2023-07-20T01:05:35;2.80;;;2.25;;
62554;SDS011;48610;52.144;8.624;2023-07-20T01:12:22;5.00;;;2.00;;
62554;SDS011;48610;52.144;8.624;2023-07-20T01:15:41;4.75;;;2.10;;
62554;SDS011;48610;52.144;8.624;2023-07-20T01:18:42;3.17;;;2.17;;
62554;SDS011;48610;52.144;8.624;2023-07-20T01:25:11;3.63;;;2.20;;
62554;SDS011;48610;52.144;8.624;2023-07-20T01:34:57;2.78;;;2.17;;
62554;SDS011;48610;52.144;8.624;2023-07-20T01:37:59;2.65;;;2.40;;
62554;SDS011;48610;52.144;8.624;2023-07-20T01:41:01;3.67;;;2.28;;
62554;SDS011;48610;52.144;8.624;2023-07-20T01:44:03;7.00;;;2.88;;
62554;SDS011;48610;52.144;8.624;2023-07-20T01:47:04;5.25;;;2.38;;
62554;SDS011;48610;52.144;8.624;2023-07-20T01:50:05;4.55;;;2.60;;
62554;SDS011;48610;52.144;8.624;2023-07-20T01:53:07;5.45;;;2.88;;
62554;SDS011;48610;52.144;8.624;2023-07-20T01:56:08;3.20;;;2.53;;
62554;SDS011;48610;52.144;8.624;2023-07-20T01:59:09;3.45;;;2.53;;
62554;SDS011;48610;52.144;8.624;2023-07-20T02:02:09;6.15;;;2.72;;
62554;SDS011;48610;52.144;8.624;2023-07-20T02:05:10;7.47;;;2.95;;
62554;SDS011;48610;52.144;8.624;2023-07-20T02:08:10;3.15;;;2.70;;
62554;SDS011;48610;52.144;8.624;2023-07-20T02:11:11;3.90;;;2.65;;
62554;SDS011;48610;52.144;8.624;2023-07-20T02:14:12;4.60;;;3.05;;
62554;SDS011;48610;52.144;8.624;2023-07-20T02:17:12;4.13;;;2.70;;
62554;SDS011;48610;52.144;8.624;2023-07-20T02:20:13;10.45;;;3.00;;
62554;SDS011;48610;52.144;8.624;2023-07-20T02:23:14;3.63;;;2.70;;
62554;SDS011;48610;52.144;8.624;2023-07-20T02:26:14;5.75;;;2.78;;
62554;SDS011;48610;52.144;8.624;2023-07-20T02:33:12;2.72;;;2.53;;
62554;SDS011;48610;52.144;8.624;2023-07-20T02:36:12;4.88;;;2.70;;
62554;SDS011;48610;52.144;8.624;2023-07-20T02:39:13;3.40;;;2.50;;
62554;SDS011;48610;52.144;8.624;2023-07-20T02:42:14;5.13;;;3.20;;
62554;SDS011;48610;52.144;8.624;2023-07-20T02:45:14;6.80;;;3.20;;
62554;SDS011;48610;52.144;8.624;2023-07-20T02:48:15;5.72;;;3.05;;
62554;SDS011;48610;52.144;8.624;2023-07-20T02:51:15;5.32;;;3.53;;
62554;SDS011;48610;52.144;8.624;2023-07-20T02:54:16;5.50;;;3.50;;
62554;SDS011;48610;52.144;8.624;2023-07-20T02:57:16;8.45;;;4.00;;
62554;SDS011;48610;52.144;8.624;2023-07-20T03:00:17;4.45;;;3.47;;
62554;SDS011;48610;52.144;8.624;2023-07-20T03:03:19;8.68;;;3.70;;
62554;SDS011;48610;52.144;8.624;2023-07-20T03:06:20;5.55;;;3.70;;
62554;SDS011;48610;52.144;8.624;2023-07-20T03:09:21;4.38;;;3.58;;
62554;SDS011;48610;52.144;8.624;2023-07-20T03:12:22;7.72;;;3.60;;
62554;SDS011;48610;52.144;8.624;2023-07-20T03:15:22;5.10;;;3.13;;
62554;SDS011;48610;52.144;8.624;2023-07-20T03:18:23;7.97;;;3.38;;
62554;SDS011;48610;52.144;8.624;2023-07-20T03:21:24;3.67;;;3.05;;
62554;SDS011;48610;52.144;8.624;2023-07-20T03:24:24;5.60;;;2.83;;
62554;SDS011;48610;52.144;8.624;2023-07-20T03:27:25;3.70;;;3.00;;
62554;SDS011;48610;52.144;8.624;2023-07-20T03:30:25;6.13;;;3.28;;
62554;SDS011;48610;52.144;8.624;2023-07-20T03:33:27;4.35;;;3.05;;
62554;SDS011;48610;52.144;8.624;2023-07-20T03:36:28;3.10;;;2.67;;
62554;SDS011;48610;52.144;8.624;2023-07-20T03:39:29;4.50;;;2.95;;
62554;SDS011;48610;52.144;8.624;2023-07-20T03:42:30;5.63;;;2.72;;
62554;SDS011;48610;52.144;8.624;2023-07-20T03:45:30;3.17;;;2.80;;
62554;SDS011;48610;52.144;8.624;2023-07-20T03:48:31;3.92;;;2.75;;
62554;SDS011;48610;52.144;8.624;2023-07-20T03:51:32;2.65;;;2.45;;
62554;SDS011;48610;52.144;8.624;2023-07-20T03:54:32;3.00;;;2.65;;
62554;SDS011;48610;52.144;8.624;2023-07-20T03:57:33;6.70;;;2.60;;
62554;SDS011;48610;52.144;8.624;2023-07-20T04:00:34;3.03;;;2.72;;
62554;SDS011;48610;52.144;8.624;2023-07-20T04:03:35;4.13;;;2.92;;
62554;SDS011;48610;52.144;8.624;2023-07-20T04:06:36;4.53;;;3.38;;
62554;SDS011;48610;52.144;8.624;2023-07-20T04:09:37;5.90;;;3.72;;
62554;SDS011;48610;52.144;8.624;2023-07-20T04:12:38;12.00;;;4.60;;
62554;SDS011;48610;52.144;8.624;2023-07-20T04:15:38;4.85;;;3.97;;
62554;SDS011;48610;52.144;8.624;2023-07-20T04:18:39;9.88;;;4.10;;
62554;SDS011;48610;52.144;8.624;2023-07-20T04:21:40;5.35;;;4.10;;
62554;SDS011;48610;52.144;8.624;2023-07-20T04:24:42;4.00;;;3.60;;
62554;SDS011;48610;52.144;8.624;2023-07-20T04:27:42;7.55;;;4.32;;
62554;SDS011;48610;52.144;8.624;2023-07-20T04:30:43;6.28;;;3.95;;
62554;SDS011;48610;52.144;8.624;2023-07-20T04:33:44;8.95;;;3.90;;
62554;SDS011;48610;52.144;8.624;2023-07-20T04:36:44;4.97;;;4.10;;
62554;SDS011;48610;52.144;8.624;2023-07-20T04:39:45;4.65;;;3.30;;
62554;SDS011;48610;52.144;8.624;2023-07-20T04:42:46;4.65;;;3.40;;
62554;SDS011;48610;52.144;8.624;2023-07-20T04:45:46;6.05;;;3.38;;
62554;SDS011;48610;52.144;8.624;2023-07-20T04:48:47;5.15;;;3.40;;
62554;SDS011;48610;52.144;8.624;2023-07-20T04:51:48;4.38;;;3.30;;
62554;SDS011;48610;52.144;8.624;2023-07-20T04:54:48;5.18;;;3.50;;
62554;SDS011;48610;52.144;8.624;2023-07-20T04:57:49;4.28;;;3.35;;
62554;SDS011;48610;52.144;8.624;2023-07-20T05:00:50;3.40;;;3.10;;
62554;SDS011;48610;52.144;8.624;2023-07-20T05:03:51;6.32;;;3.50;;
62554;SDS011;48610;52.144;8.624;2023-07-20T05:06:51;7.00;;;3.22;;
62554;SDS011;48610;52.144;8.624;2023-07-20T05:09:52;6.25;;;3.53;;
62554;SDS011;48610;52.144;8.624;2023-07-20T05:12:52;4.00;;;3.53;;
62554;SDS011;48610;52.144;8.624;2023-07-20T05:15:53;5.57;;;3.95;;
62554;SDS011;48610;52.144;8.624;2023-07-20T05:18:54;4.53;;;3.80;;
62554;SDS011;48610;52.144;8.624;2023-07-20T05:21:56;5.63;;;3.90;;
62554;SDS011;48610;52.144;8.624;2023-07-20T05:24:56;5.07;;;3.72;;
62554;SDS011;48610;52.144;8.624;2023-07-20T05:27:57;3.97;;;3.25;;
62554;SDS011;48610;52.144;8.624;2023-07-20T05:30:58;5.90;;;3.65;;
62554;SDS011;48610;52.144;8.624;2023-07-20T05:33:59;6.32;;;3.47;;
62554;SDS011;48610;52.144;8.624;2023-07-20T05:37:00;5.75;;;3.40;;
62554;SDS011;48610;52.144;8.624;2023-07-20T05:40:00;4.55;;;3.17;;
62554;SDS011;48610;52.144;8.624;2023-07-20T05:43:01;6.18;;;3.20;;
62554;SDS011;48610;52.144;8.624;2023-07-20T05:46:02;4.57;;;3.20;;
62554;SDS011;48610;52.144;8.624;2023-07-20T05:49:02;6.15;;;3.58;;
62554;SDS011;48610;52.144;8.624;2023-07-20T05:52:03;3.58;;;3.00;;
62554;SDS011;48610;52.144;8.624;2023-07-20T05:55:04;4.93;;;3.50;;
62554;SDS011;48610;52.144;8.624;2023-07-20T05:58:05;3.47;;;2.85;;
62554;SDS011;48610;52.144;8.624;2023-07-20T06:01:06;4.53;;;3.10;;
62554;SDS011;48610;52.144;8.624;2023-07-20T06:04:06;4.43;;;2.80;;
62554;SDS011;48610;52.144;8.624;2023-07-20T06:07:07;4.38;;;2.70;;
62554;SDS011;48610;52.144;8.624;2023-07-20T06:10:08;2.95;;;2.45;;
62554;SDS011;48610;52.144;8.624;2023-07-20T06:13:09;2.70;;;2.50;;
62554;SDS011;48610;52.144;8.624;2023-07-20T06:16:10;3.17;;;2.05;;
62554;SDS011;48610;52.144;8.624;2023-07-20T06:19:10;4.88;;;2.60;;
62554;SDS011;48610;52.144;8.624;2023-07-20T06:22:12;2.40;;;1.95;;
62554;SDS011;48610;52.144;8.624;2023-07-20T06:25:12;2.50;;;1.88;;
62554;SDS011;48610;52.144;8.624;2023-07-20T06:28:13;1.88;;;1.75;;
62554;SDS011;48610;52.144;8.624;2023-07-20T06:31:14;5.10;;;1.77;;
62554;SDS011;48610;52.144;8.624;2023-07-20T06:34:14;1.48;;;1.38;;
62554;SDS011;48610;52.144;8.624;2023-07-20T06:37:15;3.15;;;1.77;;
62554;SDS011;48610;52.144;8.624;2023-07-20T06:40:15;2.45;;;1.95;;
62554;SDS011;48610;52.144;8.624;2023-07-20T06:43:16;1.80;;;1.70;;
62554;SDS011;48610;52.144;8.624;2023-07-20T06:46:17;2.30;;;1.67;;
62554;SDS011;48610;52.144;8.624;2023-07-20T06:49:24;1.95;;;1.85;;
62554;SDS011;48610;52.144;8.624;2023-07-20T06:52:26;2.17;;;1.98;;
62554;SDS011;48610;52.144;8.624;2023-07-20T06:55:26;2.40;;;1.80;;
62554;SDS011;48610;52.144;8.624;2023-07-20T06:58:27;5.90;;;2.00;;
62554;SDS011;48610;52.144;8.624;2023-07-20T07:01:27;3.42;;;2.20;;
62554;SDS011;48610;52.144;8.624;2023-07-20T07:04:28;1.48;;;1.38;;
62554;SDS011;48610;52.144;8.624;2023-07-20T07:07:29;1.73;;;1.60;;
62554;SDS011;48610;52.144;8.624;2023-07-20T07:10:30;1.70;;;1.55;;
62554;SDS011;48610;52.144;8.624;2023-07-20T07:13:30;3.45;;;1.30;;
62554;SDS011;48610;52.144;8.624;2023-07-20T07:16:31;4.68;;;1.67;;
62554;SDS011;48610;52.144;8.624;2023-07-20T07:19:32;1.38;;;1.27;;
62554;SDS011;48610;52.144;8.624;2023-07-20T07:22:32;1.73;;;1.63;;
62554;SDS011;48610;52.144;8.624;2023-07-20T07:25:33;2.22;;;1.52;;
62554;SDS011;48610;52.144;8.624;2023-07-20T07:28:33;2.63;;;1.95;;
62554;SDS011;48610;52.144;8.624;2023-07-20T07:31:34;1.38;;;1.20;;
62554;SDS011;48610;52.144;8.624;2023-07-20T07:34:38;1.50;;;1.40;;
62554;SDS011;48610;52.144;8.624;2023-07-20T07:37:39;3.33;;;1.52;;
62554;SDS011;48610;52.144;8.624;2023-07-20T07:40:39;1.60;;;1.50;;
62554;SDS011;48610;52.144;8.624;2023-07-20T07:43:40;2.17;;;1.45;;
62554;SDS011;48610;52.144;8.624;2023-07-20T07:46:41;1.98;;;1.73;;
62554;SDS011;48610;52.144;8.624;2023-07-20T07:49:41;3.13;;;1.67;;
62554;SDS011;48610;52.144;8.624;2023-07-20T07:52:42;1.38;;;1.27;;
62554;SDS011;48610;52.144;8.624;2023-07-20T07:55:43;1.40;;;1.30;;
62554;SDS011;48610;52.144;8.624;2023-07-20T07:58:43;5.60;;;1.65;;
62554;SDS011;48610;52.144;8.624;2023-07-20T08:01:44;1.67;;;1.15;;
62554;SDS011;48610;52.144;8.624;2023-07-20T08:04:45;2.03;;;1.00;;
62554;SDS011;48610;52.144;8.624;2023-07-20T08:07:45;1.20;;;1.10;;
62554;SDS011;48610;52.144;8.624;2023-07-20T08:10:46;1.40;;;1.27;;
62554;SDS011;48610;52.144;8.624;2023-07-20T08:13:47;2.85;;;1.45;;
62554;SDS011;48610;52.144;8.624;2023-07-20T08:16:47;0.90;;;0.90;;
62554;SDS011;48610;52.144;8.624;2023-07-20T08:19:48;1.08;;;0.93;;
62554;SDS011;48610;52.144;8.624;2023-07-20T08:22:49;1.15;;;1.00;;
62554;SDS011;48610;52.144;8.624;2023-07-20T08:25:49;3.03;;;1.00;;
62554;SDS011;48610;52.144;8.624;2023-07-20T08:28:50;1.00;;;0.90;;
62554;SDS011;48610;52.144;8.624;2023-07-20T08:31:51;0.90;;;0.90;;
62554;SDS011;48610;52.144;8.624;2023-07-20T08:34:51;2.30;;;1.10;;
62554;SDS011;48610;52.144;8.624;2023-07-20T08:37:52;1.20;;;1.10;;
62554;SDS011;48610;52.144;8.624;2023-07-20T08:40:53;4.20;;;1.17;;
62554;SDS011;48610;52.144;8.624;2023-07-20T08:43:55;1.45;;;0.90;;
62554;SDS011;48610;52.144;8.624;2023-07-20T08:46:58;1.30;;;1.20;;
62554;SDS011;48610;52.144;8.624;2023-07-20T08:50:00;1.02;;;1.00;;
62554;SDS011;48610;52.144;8.624;2023-07-20T08:53:05;1.95;;;1.33;;
62554;SDS011;48610;52.144;8.624;2023-07-20T08:56:06;1.92;;;0.80;;
62554;SDS011;48610;52.144;8.624;2023-07-20T08:59:10;1.15;;;0.93;;
62554;SDS011;48610;52.144;8.624;2023-07-20T09:02:15;1.08;;;0.85;;
62554;SDS011;48610;52.144;8.624;2023-07-20T09:05:17;1.58;;;1.00;;
62554;SDS011;48610;52.144;8.624;2023-07-20T09:08:19;1.08;;;0.90;;
62554;SDS011;48610;52.144;8.624;2023-07-20T09:11:19;2.38;;;1.05;;
62554;SDS011;48610;52.144;8.624;2023-07-20T09:14:20;2.10;;;0.90;;
62554;SDS011;48610;52.144;8.624;2023-07-20T09:17:24;2.03;;;1.02;;
62554;SDS011;48610;52.144;8.624;2023-07-20T09:20:26;2.65;;;0.90;;
62554;SDS011;48610;52.144;8.624;2023-07-20T09:23:30;2.28;;;1.00;;
62554;SDS011;48610;52.144;8.624;2023-07-20T09:26:32;1.33;;;1.23;;
62554;SDS011;48610;52.144;8.624;2023-07-20T09:29:47;2.45;;;1.20;;
62554;SDS011;48610;52.144;8.624;2023-07-20T09:32:49;7.38;;;1.42;;
62554;SDS011;48610;52.144;8.624;2023-07-20T09:35:53;2.95;;;1.20;;
62554;SDS011;48610;52.144;8.624;2023-07-20T09:38:54;2.40;;;0.80;;
62554;SDS011;48610;52.144;8.624;2023-07-20T09:41:54;1.95;;;1.60;;
62554;SDS011;48610;52.144;8.624;2023-07-20T09:45:01;1.08;;;1.00;;
62554;SDS011;48610;52.144;8.624;2023-07-20T09:48:06;2.05;;;1.00;;
62554;SDS011;48610;52.144;8.624;2023-07-20T09:51:07;2.53;;;1.60;;
62554;SDS011;48610;52.144;8.624;2023-07-20T09:54:08;0.95;;;0.90;;
62554;SDS011;48610;52.144;8.624;2023-07-20T09:57:11;1.10;;;0.82;;
62554;SDS011;48610;52.144;8.624;2023-07-20T10:00:14;0.85;;;0.85;;
62554;SDS011;48610;52.144;8.624;2023-07-20T10:03:18;3.38;;;1.17;;
62554;SDS011;48610;52.144;8.624;2023-07-20T10:06:20;1.50;;;0.80;;
62554;SDS011;48610;52.144;8.624;2023-07-20T10:09:24;0.77;;;0.77;;
62554;SDS011;48610;52.144;8.624;2023-07-20T10:12:26;1.45;;;1.00;;
62554;SDS011;48610;52.144;8.624;2023-07-20T10:15:40;0.82;;;0.82;;
62554;SDS011;48610;52.144;8.624;2023-07-20T10:18:46;1.25;;;1.15;;
62554;SDS011;48610;52.144;8.624;2023-07-20T10:21:56;1.98;;;1.15;;
62554;SDS011;48610;52.144;8.624;2023-07-20T10:25:03;2.70;;;1.17;;
62554;SDS011;48610;52.144;8.624;2023-07-20T10:28:06;1.25;;;1.25;;
62554;SDS011;48610;52.144;8.624;2023-07-20T10:31:08;5.32;;;1.02;;
62554;SDS011;48610;52.144;8.624;2023-07-20T10:34:10;1.48;;;1.13;;
62554;SDS011;48610;52.144;8.624;2023-07-20T10:37:22;1.35;;;1.25;;
62554;SDS011;48610;52.144;8.624;2023-07-20T10:40:53;1.73;;;1.20;;
62554;SDS011;48610;52.144;8.624;2023-07-20T10:44:05;1.20;;;1.10;;
62554;SDS011;48610;52.144;8.624;2023-07-20T10:47:08;2.53;;;1.20;;
62554;SDS011;48610;52.144;8.624;2023-07-20T10:50:10;1.15;;;1.15;;
62554;SDS011;48610;52.144;8.624;2023-07-20T10:53:16;1.73;;;1.20;;
62554;SDS011;48610;52.144;8.624;2023-07-20T10:56:21;1.20;;;1.05;;
62554;SDS011;48610;52.144;8.624;2023-07-20T11:02:23;4.50;;;1.60;;
62554;SDS011;48610;52.144;8.624;2023-07-20T11:05:38;7.00;;;1.52;;
62554;SDS011;48610;52.144;8.624;2023-07-20T11:08:40;0.97;;;0.97;;
62554;SDS011;48610;52.144;8.624;2023-07-20T11:11:42;3.65;;;1.40;;
62554;SDS011;48610;52.144;8.624;2023-07-20T11:14:57;1.10;;;1.10;;
62554;SDS011;48610;52.144;8.624;2023-07-20T11:18:13;1.90;;;0.95;;
62554;SDS011;48610;52.144;8.624;2023-07-20T11:21:14;1.38;;;1.10;;
62554;SDS011;48610;52.144;8.624;2023-07-20T11:24:15;2.63;;;1.20;;
62554;SDS011;48610;52.144;8.624;2023-07-20T11:27:16;0.88;;;0.88;;
62554;SDS011;48610;52.144;8.624;2023-07-20T11:30:22;1.23;;;1.13;;
62554;SDS011;48610;52.144;8.624;2023-07-20T11:33:23;4.13;;;1.27;;
62554;SDS011;48610;52.144;8.624;2023-07-20T11:36:23;1.17;;;1.08;;
62554;SDS011;48610;52.144;8.624;2023-07-20T11:39:24;1.27;;;1.13;;
62554;SDS011;48610;52.144;8.624;2023-07-20T11:42:25;1.42;;;1.33;;
62554;SDS011;48610;52.144;8.624;2023-07-20T11:45:26;1.25;;;1.20;;
62554;SDS011;48610;52.144;8.624;2023-07-20T11:48:27;1.45;;;1.35;;
62554;SDS011;48610;52.144;8.624;2023-07-20T11:51:28;1.60;;;1.40;;
62554;SDS011;48610;52.144;8.624;2023-07-20T11:54:29;1.60;;;1.40;;
62554;SDS011;48610;52.144;8.624;2023-07-20T11:57:31;2.17;;;1.30;;
62554;SDS011;48610;52.144;8.624;2023-07-20T12:00:32;1.77;;;1.67;;
62554;SDS011;48610;52.144;8.624;2023-07-20T12:03:34;1.42;;;1.33;;
62554;SDS011;48610;52.144;8.624;2023-07-20T12:06:34;1.42;;;1.30;;
62554;SDS011;48610;52.144;8.624;2023-07-20T12:09:35;1.73;;;1.63;;
62554;SDS011;48610;52.144;8.624;2023-07-20T12:12:39;1.98;;;1.88;;
62554;SDS011;48610;52.144;8.624;2023-07-20T12:15:43;2.20;;;2.00;;
62554;SDS011;48610;52.144;8.624;2023-07-20T12:18:44;2.03;;;1.90;;
62554;SDS011;48610;52.144;8.624;2023-07-20T12:21:44;1.88;;;1.77;;
62554;SDS011;48610;52.144;8.624;2023-07-20T12:24:45;9.00;;;2.85;;
62554;SDS011;48610;52.144;8.624;2023-07-20T12:27:49;9.63;;;2.58;;
62554;SDS011;48610;52.144;8.624;2023-07-20T12:30:49;2.90;;;2.70;;
62554;SDS011;48610;52.144;8.624;2023-07-20T12:33:56;2.80;;;2.60;;
62554;SDS011;48610;52.144;8.624;2023-07-20T12:36:58;3.95;;;3.00;;
62554;SDS011;48610;52.144;8.624;2023-07-20T12:39:59;3.08;;;2.78;;
62554;SDS011;48610;52.144;8.624;2023-07-20T12:43:00;3.45;;;3.10;;
62554;SDS011;48610;52.144;8.624;2023-07-20T12:46:00;3.70;;;2.90;;
62554;SDS011;48610;52.144;8.624;2023-07-20T12:49:01;3.08;;;2.83;;
62554;SDS011;48610;52.144;8.624;2023-07-20T12:52:02;3.85;;;2.72;;
62554;SDS011;48610;52.144;8.624;2023-07-20T12:55:04;2.97;;;2.78;;
62554;SDS011;48610;52.144;8.624;2023-07-20T12:58:06;3.65;;;3.13;;
62554;SDS011;48610;52.144;8.624;2023-07-20T13:01:07;3.63;;;3.00;;
62554;SDS011;48610;52.144;8.624;2023-07-20T13:04:07;3.22;;;2.90;;
62554;SDS011;48610;52.144;8.624;2023-07-20T13:07:09;3.42;;;2.90;;
62554;SDS011;48610;52.144;8.624;2023-07-20T13:10:12;3.90;;;2.85;;
62554;SDS011;48610;52.144;8.624;2023-07-20T13:13:13;4.28;;;3.15;;
62554;SDS011;48610;52.144;8.624;2023-07-20T13:16:13;3.38;;;2.80;;
62554;SDS011;48610;52.144;8.624;2023-07-20T13:19:15;3.60;;;2.90;;
62554;SDS011;48610;52.144;8.624;2023-07-20T13:22:15;4.97;;;3.20;;
62554;SDS011;48610;52.144;8.624;2023-07-20T13:25:16;3.13;;;2.80;;
62554;SDS011;48610;52.144;8.624;2023-07-20T13:28:17;2.88;;;2.60;;
62554;SDS011;48610;52.144;8.624;2023-07-20T13:31:17;3.88;;;2.22;;
62554;SDS011;48610;52.144;8.624;2023-07-20T13:34:18;2.50;;;2.30;;
62554;SDS011;48610;52.144;8.624;2023-07-20T13:37:18;2.65;;;2.45;;
62554;SDS011;48610;52.144;8.624;2023-07-20T13:40:19;2.28;;;2.08;;
62554;SDS011;48610;52.144;8.624;2023-07-20T13:43:20;2.70;;;2.20;;
62554;SDS011;48610;52.144;8.624;2023-07-20T13:46:20;2.20;;;2.00;;
62554;SDS011;48610;52.144;8.624;2023-07-20T13:49:21;3.00;;;1.83;;
62554;SDS011;48610;52.144;8.624;2023-07-20T13:52:22;1.65;;;1.55;;
62554;SDS011;48610;52.144;8.624;2023-07-20T13:55:22;1.60;;;1.50;;
62554;SDS011;48610;52.144;8.624;2023-07-20T13:58:23;1.85;;;1.70;;
62554;SDS011;48610;52.144;8.624;2023-07-20T14:01:25;2.15;;;1.10;;
62554;SDS011;48610;52.144;8.624;2023-07-20T14:04:28;1.77;;;1.45;;
62554;SDS011;48610;52.144;8.624;2023-07-20T14:07:29;1.98;;;0.90;;
62554;SDS011;48610;52.144;8.624;2023-07-20T14:10:29;1.38;;;1.27;;
62554;SDS011;48610;52.144;8.624;2023-07-20T14:13:30;1.25;;;1.00;;
62554;SDS011;48610;52.144;8.624;2023-07-20T14:16:30;1.05;;;1.02;;
62554;SDS011;48610;52.144;8.624;2023-07-20T14:19:32;2.05;;;1.40;;
62554;SDS011;48610;52.144;8.624;2023-07-20T14:22:32;2.58;;;1.30;;
62554;SDS011;48610;52.144;8.624;2023-07-20T14:25:33;1.35;;;1.25;;
62554;SDS011;48610;52.144;8.624;2023-07-20T14:28:34;2.05;;;1.02;;
62554;SDS011;48610;52.144;8.624;2023-07-20T14:31:35;2.20;;;1.65;;
62554;SDS011;48610;52.144;8.624;2023-07-20T14:34:36;1.73;;;1.50;;
62554;SDS011;48610;52.144;8.624;2023-07-20T14:37:36;3.15;;;1.10;;
62554;SDS011;48610;52.144;8.624;2023-07-20T14:40:37;1.60;;;1.42;;
62554;SDS011;48610;52.144;8.624;2023-07-20T14:43:38;1.80;;;0.88;;
62554;SDS011;48610;52.144;8.624;2023-07-20T14:46:39;5.07;;;1.50;;
62554;SDS011;48610;52.144;8.624;2023-07-20T14:49:39;2.10;;;1.33;;
62554;SDS011;48610;52.144;8.624;2023-07-20T14:52:40;3.10;;;1.30;;
62554;SDS011;48610;52.144;8.624;2023-07-20T14:55:41;2.28;;;1.50;;
62554;SDS011;48610;52.144;8.624;2023-07-20T14:58:42;5.07;;;1.45;;
62554;SDS011;48610;52.144;8.624;2023-07-20T15:01:43;1.23;;;0.95;;
62554;SDS011;48610;52.144;8.624;2023-07-20T15:04:48;4.03;;;1.75;;
62554;SDS011;48610;52.144;8.624;2023-07-20T15:07:50;1.90;;;1.35;;
62554;SDS011;48610;52.144;8.624;2023-07-20T15:10:51;8.25;;;1.38;;
62554;SDS011;48610;52.144;8.624;2023-07-20T15:13:52;3.30;;;1.73;;
62554;SDS011;48610;52.144;8.624;2023-07-20T15:16:52;1.58;;;1.33;;
62554;SDS011;48610;52.144;8.624;2023-07-20T15:19:53;1.48;;;1.38;;
62554;SDS011;48610;52.144;8.624;2023-07-20T15:22:53;5.18;;;1.40;;
62554;SDS011;48610;52.144;8.624;2023-07-20T15:25:54;2.03;;;1.27;;
62554;SDS011;48610;52.144;8.624;2023-07-20T15:28:55;4.85;;;1.48;;
62554;SDS011;48610;52.144;8.624;2023-07-20T15:31:55;2.08;;;1.50;;
62554;SDS011;48610;52.144;8.624;2023-07-20T15:34:56;1.20;;;1.10;;
62554;SDS011;48610;52.144;8.624;2023-07-20T15:37:56;1.42;;;0.88;;
62554;SDS011;48610;52.144;8.624;2023-07-20T15:40:59;1.30;;;0.98;;
62554;SDS011;48610;52.144;8.624;2023-07-20T15:44:01;1.17;;;0.80;;
62554;SDS011;48610;52.144;8.624;2023-07-20T15:47:02;1.95;;;1.30;;
62554;SDS011;48610;52.144;8.624;2023-07-20T15:50:02;1.10;;;1.00;;
62554;SDS011;48610;52.144;8.624;2023-07-20T15:53:03;0.80;;;0.80;;
62554;SDS011;48610;52.144;8.624;2023-07-20T15:56:04;1.58;;;1.10;;
62554;SDS011;48610;52.144;8.624;2023-07-20T15:59:07;1.60;;;1.00;;
62554;SDS011;48610;52.144;8.624;2023-07-20T16:02:09;1.08;;;1.08;;
62554;SDS011;48610;52.144;8.624;2023-07-20T16:05:10;1.42;;;1.08;;
62554;SDS011;48610;52.144;8.624;2023-07-20T16:08:11;2.10;;;1.27;;
62554;SDS011;48610;52.144;8.624;2023-07-20T16:11:11;1.10;;;1.00;;
62554;SDS011;48610;52.144;8.624;2023-07-20T16:14:12;0.90;;;0.90;;
62554;SDS011;48610;52.144;8.624;2023-07-20T16:17:13;0.90;;;0.73;;
62554;SDS011;48610;52.144;8.624;2023-07-20T16:20:14;1.08;;;0.98;;
62554;SDS011;48610;52.144;8.624;2023-07-20T16:23:14;1.00;;;0.90;;
62554;SDS011;48610;52.144;8.624;2023-07-20T16:26:15;1.52;;;1.35;;
62554;SDS011;48610;52.144;8.624;2023-07-20T16:29:16;0.68;;;0.68;;
62554;SDS011;48610;52.144;8.624;2023-07-20T16:32:17;1.17;;;0.95;;
62554;SDS011;48610;52.144;8.624;2023-07-20T16:35:17;1.08;;;0.70;;
62554;SDS011;48610;52.144;8.624;2023-07-20T16:38:18;0.68;;;0.68;;
62554;SDS011;48610;52.144;8.624;2023-07-20T16:41:19;0.73;;;0.73;;
62554;SDS011;48610;52.144;8.624;2023-07-20T16:44:19;0.65;;;0.65;;
62554;SDS011;48610;52.144;8.624;2023-07-20T16:47:20;1.15;;;0.90;;
62554;SDS011;48610;52.144;8.624;2023-07-20T16:50:21;1.40;;;0.90;;
62554;SDS011;48610;52.144;8.624;2023-07-20T16:53:22;1.02;;;0.98;;
62554;SDS011;48610;52.144;8.624;2023-07-20T16:56:24;3.33;;;0.80;;
62554;SDS011;48610;52.144;8.624;2023-07-20T16:59:24;1.77;;;0.90;;
62554;SDS011;48610;52.144;8.624;2023-07-20T17:02:25;1.73;;;1.13;;
62554;SDS011;48610;52.144;8.624;2023-07-20T17:05:26;0.52;;;0.52;;
62554;SDS011;48610;52.144;8.624;2023-07-20T17:08:26;0.88;;;0.77;;
62554;SDS011;48610;52.144;8.624;2023-07-20T17:11:27;0.73;;;0.73;;
62554;SDS011;48610;52.144;8.624;2023-07-20T17:14:28;4.25;;;1.20;;
62554;SDS011;48610;52.144;8.624;2023-07-20T17:17:28;1.50;;;0.75;;
62554;SDS011;48610;52.144;8.624;2023-07-20T17:20:29;0.98;;;0.90;;
62554;SDS011;48610;52.144;8.624;2023-07-20T17:23:30;1.70;;;0.88;;
62554;SDS011;48610;52.144;8.624;2023-07-20T17:26:31;0.60;;;0.60;;
62554;SDS011;48610;52.144;8.624;2023-07-20T17:29:33;0.85;;;0.85;;
62554;SDS011;48610;52.144;8.624;2023-07-20T17:32:34;1.75;;;0.95;;
62554;SDS011;48610;52.144;8.624;2023-07-20T17:35:35;0.70;;;0.70;;
62554;SDS011;48610;52.144;8.624;2023-07-20T17:38:36;1.02;;;0.60;;
62554;SDS011;48610;52.144;8.624;2023-07-20T17:41:37;0.98;;;0.98;;
62554;SDS011;48610;52.144;8.624;2023-07-20T17:44:37;1.67;;;0.90;;
62554;SDS011;48610;52.144;8.624;2023-07-20T17:47:38;1.55;;;0.90;;
62554;SDS011;48610;52.144;8.624;2023-07-20T17:50:39;4.25;;;0.90;;
62554;SDS011;48610;52.144;8.624;2023-07-20T17:53:40;2.38;;;1.20;;
62554;SDS011;48610;52.144;8.624;2023-07-20T17:56:40;0.80;;;0.80;;
62554;SDS011;48610;52.144;8.624;2023-07-20T17:59:41;9.95;;;1.40;;
62554;SDS011;48610;52.144;8.624;2023-07-20T18:02:42;1.85;;;1.02;;
62554;SDS011;48610;52.144;8.624;2023-07-20T18:05:43;0.70;;;0.70;;
62554;SDS011;48610;52.144;8.624;2023-07-20T18:08:44;0.90;;;0.90;;
62554;SDS011;48610;52.144;8.624;2023-07-20T18:11:45;1.00;;;0.90;;
62554;SDS011;48610;52.144;8.624;2023-07-20T18:14:46;1.20;;;1.00;;
62554;SDS011;48610;52.144;8.624;2023-07-20T18:17:46;0.90;;;0.90;;
62554;SDS011;48610;52.144;8.624;2023-07-20T18:20:47;0.95;;;0.95;;
62554;SDS011;48610;52.144;8.624;2023-07-20T18:23:47;3.30;;;1.42;;
62554;SDS011;48610;52.144;8.624;2023-07-20T18:26:51;2.65;;;0.90;;
62554;SDS011;48610;52.144;8.624;2023-07-20T18:29:51;4.13;;;0.93;;
62554;SDS011;48610;52.144;8.624;2023-07-20T18:32:52;2.45;;;1.35;;
62554;SDS011;48610;52.144;8.624;2023-07-20T18:35:53;0.82;;;0.82;;